createdAt,value
2022-10-16T00:04:20.728Z,12.83
2022-10-16T00:14:23.272Z,12.83
2022-10-16T00:24:26.345Z,12.81
2022-10-16T00:34:28.745Z,12.80
2022-10-16T00:44:47.371Z,12.78
2022-10-16T00:54:52.564Z,12.74
2022-10-16T01:04:55.843Z,12.68
2022-10-16T01:15:23.223Z,12.63
2022-10-16T01:26:00.916Z,12.53
2022-10-16T01:36:16.432Z,12.45
2022-10-16T01:46:21.519Z,12.35
2022-10-16T01:56:25.886Z,12.26
2022-10-16T02:06:28.299Z,12.15
2022-10-16T02:16:48.991Z,12.18
2022-10-16T02:27:20.628Z,12.14
2022-10-16T02:37:23.003Z,12.08
2022-10-16T02:47:25.341Z,12.05
2022-10-16T02:57:28.404Z,12.04
2022-10-16T03:07:30.991Z,12.08
2022-10-16T03:17:33.745Z,12.08
2022-10-16T03:27:36.044Z,12.05
2022-10-16T03:37:38.309Z,12.01
2022-10-16T03:47:40.696Z,11.98
2022-10-16T03:57:43.150Z,11.97
2022-10-16T04:07:45.520Z,11.99
2022-10-16T04:17:48.164Z,11.98
2022-10-16T04:27:50.472Z,12.00
2022-10-16T04:37:52.660Z,11.97
2022-10-16T04:47:58.742Z,11.99
2022-10-16T04:58:01.018Z,11.93
2022-10-16T05:08:03.617Z,11.96
2022-10-16T05:18:06.001Z,12.00
2022-10-16T05:28:08.287Z,12.03
2022-10-16T05:38:10.634Z,12.06
2022-10-16T05:48:12.882Z,12.06
2022-10-16T05:58:15.192Z,12.05
2022-10-16T06:08:17.567Z,11.95
2022-10-16T06:18:19.797Z,11.94
2022-10-16T06:28:22.204Z,12.02
2022-10-16T06:38:24.534Z,12.12
2022-10-16T06:48:27.750Z,12.29
2022-10-16T06:58:30.298Z,12.46
2022-10-16T07:08:37.469Z,12.72
2022-10-16T07:18:41.578Z,13.19
2022-10-16T07:28:45.378Z,13.79
2022-10-16T07:38:49.139Z,14.28
2022-10-16T07:48:52.367Z,14.39
2022-10-16T07:58:54.743Z,14.65
2022-10-16T08:08:57.776Z,14.89
2022-10-16T08:19:00.101Z,15.06
2022-10-16T08:29:02.888Z,15.32
2022-10-16T08:39:05.457Z,15.54
2022-10-16T08:49:14.950Z,15.85
2022-10-16T08:59:18.899Z,15.87
2022-10-16T09:09:33.346Z,15.94
2022-10-16T09:19:42.323Z,16.04
2022-10-16T09:29:45.414Z,16.20
2022-10-16T09:39:56.002Z,16.76
2022-10-16T09:50:10.785Z,17.35
2022-10-16T10:00:18.037Z,17.57
2022-10-16T10:10:29.215Z,17.74
2022-10-16T10:20:35.740Z,18.17
2022-10-16T10:30:38.510Z,18.46
2022-10-16T10:40:52.684Z,18.66
2022-10-16T10:51:43.046Z,18.81
2022-10-16T11:02:05.280Z,19.07
2022-10-16T11:12:23.440Z,19.41
2022-10-16T11:22:31.921Z,19.81
2022-10-16T11:32:50.915Z,20.28
2022-10-16T11:43:14.868Z,20.55
2022-10-16T11:53:26.250Z,21.03
2022-10-16T12:03:45.805Z,21.18
2022-10-16T12:13:50.137Z,21.35
2022-10-16T12:23:56.287Z,21.80
2022-10-16T12:34:05.332Z,22.27
2022-10-16T12:44:28.316Z,22.60
2022-10-16T12:54:39.257Z,22.46
2022-10-16T13:04:51.699Z,22.29
2022-10-16T13:15:18.995Z,22.18
2022-10-16T13:25:41.168Z,21.96
2022-10-16T13:35:53.503Z,21.86
2022-10-16T13:46:07.565Z,21.80
2022-10-16T13:56:19.445Z,21.73
2022-10-16T14:06:25.962Z,21.68
2022-10-16T14:16:32.492Z,21.65
2022-10-16T14:26:49.658Z,21.49
2022-10-16T14:36:53.993Z,21.37
2022-10-16T14:46:58.520Z,21.10
2022-10-16T14:57:01.327Z,20.86
2022-10-16T15:07:04.216Z,20.61
2022-10-16T15:17:07.490Z,20.49
2022-10-16T15:27:11.470Z,20.30
2022-10-16T15:37:15.181Z,20.10
2022-10-16T15:47:17.914Z,19.82
2022-10-16T15:57:20.823Z,19.47
2022-10-16T16:07:23.556Z,19.09
2022-10-16T16:17:26.211Z,18.73
2022-10-16T16:27:31.197Z,18.40
2022-10-16T16:37:34.387Z,18.08
2022-10-16T16:47:37.189Z,17.69
2022-10-16T16:57:39.703Z,17.29
2022-10-16T17:07:42.583Z,16.91
2022-10-16T17:17:45.009Z,16.55
2022-10-16T17:27:47.349Z,16.22
2022-10-16T17:37:49.808Z,15.97
2022-10-16T17:47:52.472Z,15.71
2022-10-16T17:57:54.960Z,15.49
2022-10-16T18:07:58.333Z,15.28
2022-10-16T18:18:01.067Z,15.08
2022-10-16T18:28:03.686Z,14.90
2022-10-16T18:38:06.507Z,14.73
2022-10-16T18:48:09.257Z,14.62
2022-10-16T18:58:13.028Z,14.49
2022-10-16T19:08:16.638Z,14.38
2022-10-16T19:18:21.393Z,14.23
2022-10-16T19:28:27.032Z,14.10
2022-10-16T19:38:29.435Z,13.99
2022-10-16T19:48:33.783Z,13.88
2022-10-16T19:58:36.416Z,13.75
2022-10-16T20:08:40.472Z,13.63
2022-10-16T20:18:43.454Z,13.53
2022-10-16T20:28:46.175Z,13.44
2022-10-16T20:38:49.299Z,13.32
2022-10-16T20:48:52.529Z,13.21
2022-10-16T20:58:55.134Z,13.07
2022-10-16T21:09:00.038Z,12.92
2022-10-16T21:19:02.761Z,12.86
2022-10-16T21:29:07.572Z,12.80
2022-10-16T21:39:15.622Z,12.71
2022-10-16T21:49:20.240Z,12.59
2022-10-16T21:59:22.781Z,12.50
2022-10-16T22:09:25.311Z,12.44
2022-10-16T22:19:28.513Z,12.34
2022-10-16T22:29:31.500Z,12.26
2022-10-16T22:39:33.984Z,12.13
2022-10-16T22:49:36.918Z,12.08
2022-10-16T22:59:39.641Z,11.97
2022-10-16T23:09:42.275Z,11.90
2022-10-16T23:19:44.652Z,11.81
2022-10-16T23:29:47.074Z,11.74
2022-10-16T23:39:50.810Z,11.65
2022-10-16T23:49:53.499Z,11.59
2022-10-16T23:59:55.856Z,11.59
